KRUG

Rugby Municipal Airport

Rugby, North Dakota, USA
METAR KRUG 201255Z AUTO 25008KT 10SM CLR M06/M06 A2973 RMK AO2
Observed Flight Rules
Jan-20 @ 12:55 UTC (18 minutes ago) Visual Flight Rules
Wind Visibility Clouds
250° at 8 knots 10 miles
  • Clear skies
Temperatures Readings
Current -6°C / 21°F
Dewpoint -6°C / 21°F
Humidity 100%
Altimeter 29.73" Hg
Pressure 1007 hPa
Elevation 472
METAR KRUG 201255Z AUTO 25008KT 10SM CLR M06/M06 A2973 RMK AO2
Observed Flight Rules
Jan-20 @ 12:55 UTC
(18 minutes ago)
VFR
Wind Visibility
250° at 8 knots 10 miles
Clouds
  • Clear skies
Temperature Dewpoint
-6°C / 21°F -6°C / 21°F
Humidity Altimeter Pressure
100% 29.73" Hg 1007 hPa